Terminal Aerodrome Forecast
Issued by NWS Jackson, MS

Home | Current Version | Previous Version | Text Only | Print | Product List | Glossary On
Versions: 1 2 3 4 5 6 7 8 9 10 11 12 13 14 15 16 17 18 19 20 21
582
FTUS44 KJAN 242026 AAA
TAFGLH
TAF AMD
KGLH 242026Z 2420/2518 23014G25KT P6SM VCTS BKN040CB
     FM250100 28009KT P6SM BKN040 BKN250
     FM250300 31013G24KT P6SM SKC=

USA.gov is the U.S. government's official web portal to all federal, state and local government web resources and services.